Карточка аэропорта UUYY

Внимание!
Информация на этой странице в стадии наполнения.
Если вы не увидели какой-то информации, или заметили неточность - пожалуйста сообщите нам!
Спасибо!
Команда RU-STAFF
Название аэропортаСыктывкар
Название аэропорта (англ.)Syktyvkar
Превышение339 ft. (103.3 m.)
Координаты61°38.502', 50°50.298'
Высота перехода3000 feet
Эшелон переходаQNH>=1013hPa:FL040; QNH<1013hPa:FL050; QNH<977hPa:FL060
Коды ответчика3130-3134, 5752-5757, 5770-5777, 6701-6717
Зона ОрВДСанкт-Петербург РПИ (ULLL)
Данные METARUUYY 191730Z 07006MPS 4300 BR OVC004 01/01 Q1010 R36/29//51 NOSIG RMK QBB130 QFE749/0998
Проноз погоды (TAF)UUYY 191550Z 1916/2015 06006G14MPS 3100 -SHSN BKN005 BKN017CB TEMPO 1916/1921 0300 -FZDZ FZFG BKN002 BKN016CB FM192100 08004G12MPS 6000 -SHRA FEW011 BKN017CB TEMPO 1921/2003 0300 -SHRA FG BKN002 BKN016CB BECMG 2000/2001 12003G10MPS BECMG 2004/2005 22006G14MPS
NOTAMshow/hide NOTAM
AWOS   TABLE

Информация о ВПП

ВПП Длина ВПП (м.) Покрытие Курс ВПП Частота ILS
012500Асфальтобетон6108.3
192500Асфальтобетон186111.7

Диспетчерские позиции

Позывной Наименование органа УВД Частота
UUYY_R_APPСивкар-Круг124.600
UUYY_TWRСивкар-Старт124.600



Спутниковое изображение